ADDS TAF Data INFO
IDs: Format: Raw Decoded Include METARs

Data at: 0716 UTC 24 Nov 2017

KLRU 240655Z AUTO 00000KT 10SM CLR 06/M05 A3015 RMK AO2 T00601050

KLRU 240542Z 2406/2506 21005KT P6SM FEW250
  FM240800 VRB04KT P6SM FEW250
  FM242100 25010KT P6SM FEW250